sensor_id;sensor_type;location;lat;lon;timestamp;pressure;altitude;pressure_sealevel;temperature;humidity
61337;BME280;47212;41.326;2.104;2023-08-12T00:42:29;101756.47;;;26.48;64.28
61337;BME280;47212;41.326;2.104;2023-08-12T00:48:00;101760.66;;;26.42;64.23
61337;BME280;47212;41.326;2.104;2023-08-12T00:53:19;101747.84;;;26.41;64.18
61337;BME280;47212;41.326;2.104;2023-08-12T01:05:35;101756.00;;;26.46;63.61
61337;BME280;47212;41.326;2.104;2023-08-12T01:22:23;101734.53;;;26.26;62.16
61337;BME280;47212;41.326;2.104;2023-08-12T01:27:30;101745.47;;;26.31;62.47
61337;BME280;47212;41.326;2.104;2023-08-12T03:33:20;101741.44;;;26.08;61.26
61337;BME280;47212;41.326;2.104;2023-08-12T03:38:23;101739.72;;;26.15;61.45
61337;BME280;47212;41.326;2.104;2023-08-12T03:43:25;101748.22;;;26.19;60.99
61337;BME280;47212;41.326;2.104;2023-08-12T03:48:27;101739.16;;;26.22;61.10
61337;BME280;47212;41.326;2.104;2023-08-12T03:53:32;101742.91;;;26.26;61.25
61337;BME280;47212;41.326;2.104;2023-08-12T03:58:35;101740.72;;;26.31;60.91
61337;BME280;47212;41.326;2.104;2023-08-12T04:03:38;101739.22;;;26.34;60.85
61337;BME280;47212;41.326;2.104;2023-08-12T04:37:19;101733.28;;;27.05;63.48
61337;BME280;47212;41.326;2.104;2023-08-12T04:42:22;101744.09;;;26.94;65.38
61337;BME280;47212;41.326;2.104;2023-08-12T04:47:24;101729.41;;;26.85;66.50
61337;BME280;47212;41.326;2.104;2023-08-12T04:52:31;101724.28;;;26.75;66.13
61337;BME280;47212;41.326;2.104;2023-08-12T04:57:33;101728.81;;;26.67;67.34
61337;BME280;47212;41.326;2.104;2023-08-12T05:02:35;101731.03;;;26.62;69.22
61337;BME280;47212;41.326;2.104;2023-08-12T05:07:37;101719.72;;;26.58;70.82
61337;BME280;47212;41.326;2.104;2023-08-12T05:12:43;101727.63;;;26.56;72.53
61337;BME280;47212;41.326;2.104;2023-08-12T05:17:46;101719.25;;;26.56;74.28
61337;BME280;47212;41.326;2.104;2023-08-12T05:22:52;101717.28;;;26.57;75.47
61337;BME280;47212;41.326;2.104;2023-08-12T05:27:55;101723.69;;;26.57;76.60
61337;BME280;47212;41.326;2.104;2023-08-12T05:32:57;101726.13;;;26.59;76.78
61337;BME280;47212;41.326;2.104;2023-08-12T05:38:01;101723.81;;;26.61;77.18
61337;BME280;47212;41.326;2.104;2023-08-12T05:43:03;101737.41;;;26.62;77.48
61337;BME280;47212;41.326;2.104;2023-08-12T05:48:05;101741.50;;;26.65;77.91
61337;BME280;47212;41.326;2.104;2023-08-12T05:53:07;101738.34;;;26.66;77.36
61337;BME280;47212;41.326;2.104;2023-08-12T06:07:33;101744.66;;;26.76;77.12
61337;BME280;47212;41.326;2.104;2023-08-12T06:12:35;101755.59;;;26.81;77.33
61337;BME280;47212;41.326;2.104;2023-08-12T06:17:38;101752.56;;;26.86;77.35
61337;BME280;47212;41.326;2.104;2023-08-12T06:22:40;101766.34;;;26.91;77.21
61337;BME280;47212;41.326;2.104;2023-08-12T07:01:25;101780.84;;;27.82;75.32
61337;BME280;47212;41.326;2.104;2023-08-12T07:06:32;101781.56;;;28.07;75.64
61337;BME280;47212;41.326;2.104;2023-08-12T07:11:38;101792.94;;;28.26;75.76
61337;BME280;47212;41.326;2.104;2023-08-12T07:16:48;101802.38;;;28.49;74.38
61337;BME280;47212;41.326;2.104;2023-08-12T07:21:51;101802.06;;;28.67;74.48
61337;BME280;47212;41.326;2.104;2023-08-12T07:27:08;101813.66;;;28.81;73.36
61337;BME280;47212;41.326;2.104;2023-08-12T07:32:21;101798.13;;;28.99;72.88
61337;BME280;47212;41.326;2.104;2023-08-12T07:37:30;101792.88;;;29.13;72.45
61337;BME280;47212;41.326;2.104;2023-08-12T07:42:36;101804.34;;;29.24;71.81
61337;BME280;47212;41.326;2.104;2023-08-12T07:51:19;101812.13;;;29.46;71.66
61337;BME280;47212;41.326;2.104;2023-08-12T07:56:23;101808.72;;;29.72;70.72
61337;BME280;47212;41.326;2.104;2023-08-12T08:01:25;101810.50;;;29.80;70.49
61337;BME280;47212;41.326;2.104;2023-08-12T08:06:41;101809.84;;;29.87;68.59
61337;BME280;47212;41.326;2.104;2023-08-12T08:27:39;101814.94;;;30.01;66.81
61337;BME280;47212;41.326;2.104;2023-08-12T08:32:49;101823.25;;;30.13;66.91
61337;BME280;47212;41.326;2.104;2023-08-12T08:37:53;101822.16;;;30.37;66.76
61337;BME280;47212;41.326;2.104;2023-08-12T08:43:08;101823.53;;;30.47;66.64
61337;BME280;47212;41.326;2.104;2023-08-12T08:48:15;101824.28;;;30.63;65.77
61337;BME280;47212;41.326;2.104;2023-08-12T08:53:24;101825.09;;;30.63;65.62
61337;BME280;47212;41.326;2.104;2023-08-12T09:11:19;101839.53;;;31.08;63.27
61337;BME280;47212;41.326;2.104;2023-08-12T09:16:26;101832.28;;;31.06;63.28
61337;BME280;47212;41.326;2.104;2023-08-12T09:31:33;101835.81;;;31.23;63.12
61337;BME280;47212;41.326;2.104;2023-08-12T09:43:29;101830.50;;;31.44;62.23
61337;BME280;47212;41.326;2.104;2023-08-12T10:41:20;101822.59;;;31.53;60.43
61337;BME280;47212;41.326;2.104;2023-08-12T11:21:15;101779.09;;;31.47;60.87
61337;BME280;47212;41.326;2.104;2023-08-12T11:26:17;101770.53;;;31.66;60.60
61337;BME280;47212;41.326;2.104;2023-08-12T11:31:21;101780.94;;;31.62;60.92
61337;BME280;47212;41.326;2.104;2023-08-12T11:36:25;101774.50;;;31.62;61.00
61337;BME280;47212;41.326;2.104;2023-08-12T11:41:29;101767.03;;;31.47;61.23
61337;BME280;47212;41.326;2.104;2023-08-12T11:46:34;101753.25;;;31.38;62.01
61337;BME280;47212;41.326;2.104;2023-08-12T11:51:36;101769.28;;;31.34;62.44
61337;BME280;47212;41.326;2.104;2023-08-12T11:56:39;101761.50;;;31.24;62.33
61337;BME280;47212;41.326;2.104;2023-08-12T12:01:46;101768.47;;;31.11;63.32
61337;BME280;47212;41.326;2.104;2023-08-12T12:06:52;101766.03;;;31.32;62.96
61337;BME280;47212;41.326;2.104;2023-08-12T12:22:30;101756.69;;;30.56;64.83
61337;BME280;47212;41.326;2.104;2023-08-12T12:27:34;101743.00;;;30.54;65.13
61337;BME280;47212;41.326;2.104;2023-08-12T12:32:57;101756.09;;;30.66;65.70
61337;BME280;47212;41.326;2.104;2023-08-12T12:42:33;101742.25;;;30.57;65.61
61337;BME280;47212;41.326;2.104;2023-08-12T12:47:42;101746.94;;;30.50;65.82
61337;BME280;47212;41.326;2.104;2023-08-12T12:53:06;101726.16;;;30.54;66.56
61337;BME280;47212;41.326;2.104;2023-08-12T13:22:19;101732.81;;;29.85;68.68
61337;BME280;47212;41.326;2.104;2023-08-12T13:27:25;101724.59;;;29.76;69.67
61337;BME280;47212;41.326;2.104;2023-08-12T14:32:17;101677.47;;;29.11;74.26
61337;BME280;47212;41.326;2.104;2023-08-12T14:37:25;101676.03;;;29.17;74.53
61337;BME280;47212;41.326;2.104;2023-08-12T15:02:17;101669.00;;;29.08;75.71
61337;BME280;47212;41.326;2.104;2023-08-12T15:07:36;101661.97;;;28.98;76.34
61337;BME280;47212;41.326;2.104;2023-08-12T15:42:15;101677.97;;;28.82;76.41
61337;BME280;47212;41.326;2.104;2023-08-12T15:47:18;101680.69;;;28.94;76.96
61337;BME280;47212;41.326;2.104;2023-08-12T16:02:16;101653.28;;;29.03;75.77
61337;BME280;47212;41.326;2.104;2023-08-12T16:07:19;101644.72;;;29.15;76.19
61337;BME280;47212;41.326;2.104;2023-08-12T16:42:28;101647.25;;;29.21;76.65
61337;BME280;47212;41.326;2.104;2023-08-12T16:47:31;101655.50;;;29.13;76.45
61337;BME280;47212;41.326;2.104;2023-08-12T17:08:54;101630.38;;;28.66;78.64
61337;BME280;47212;41.326;2.104;2023-08-12T17:13:59;101620.97;;;28.59;79.26
61337;BME280;47212;41.326;2.104;2023-08-12T17:32:24;101637.97;;;28.66;78.81
61337;BME280;47212;41.326;2.104;2023-08-12T17:37:27;101651.59;;;28.67;78.28
61337;BME280;47212;41.326;2.104;2023-08-12T17:42:33;101638.69;;;28.63;78.78
61337;BME280;47212;41.326;2.104;2023-08-12T17:47:37;101644.19;;;28.43;79.58
61337;BME280;47212;41.326;2.104;2023-08-12T18:02:38;101649.88;;;28.31;80.30
61337;BME280;47212;41.326;2.104;2023-08-12T18:07:48;101659.72;;;28.25;80.93
61337;BME280;47212;41.326;2.104;2023-08-12T18:12:55;101666.69;;;28.31;80.74
61337;BME280;47212;41.326;2.104;2023-08-12T18:17:58;101659.66;;;28.37;80.34
61337;BME280;47212;41.326;2.104;2023-08-12T18:23:08;101667.69;;;28.39;80.19
61337;BME280;47212;41.326;2.104;2023-08-12T18:28:13;101666.69;;;28.31;80.34
61337;BME280;47212;41.326;2.104;2023-08-12T18:33:36;101659.28;;;28.23;80.47
61337;BME280;47212;41.326;2.104;2023-08-12T18:42:27;101659.59;;;28.06;81.02
61337;BME280;47212;41.326;2.104;2023-08-12T18:47:30;101657.06;;;28.01;81.50
61337;BME280;47212;41.326;2.104;2023-08-12T18:52:35;101651.28;;;27.94;81.47
61337;BME280;47212;41.326;2.104;2023-08-12T18:57:40;101637.34;;;27.81;82.18
61337;BME280;47212;41.326;2.104;2023-08-12T19:02:44;101643.66;;;27.78;82.33
61337;BME280;47212;41.326;2.104;2023-08-12T19:21:23;101657.28;;;27.80;82.13
61337;BME280;47212;41.326;2.104;2023-08-12T19:26:25;101652.09;;;27.66;82.85
61337;BME280;47212;41.326;2.104;2023-08-12T20:31:27;101721.66;;;27.55;84.30
61337;BME280;47212;41.326;2.104;2023-08-12T20:36:34;101724.00;;;27.53;84.54
61337;BME280;47212;41.326;2.104;2023-08-12T20:41:40;101724.81;;;27.54;84.43
61337;BME280;47212;41.326;2.104;2023-08-12T20:46:48;101726.44;;;27.55;84.12
61337;BME280;47212;41.326;2.104;2023-08-12T20:51:54;101729.25;;;27.55;83.76
61337;BME280;47212;41.326;2.104;2023-08-12T20:56:57;101713.63;;;27.54;83.75
61337;BME280;47212;41.326;2.104;2023-08-12T21:02:03;101714.91;;;27.56;83.63
61337;BME280;47212;41.326;2.104;2023-08-12T21:07:07;101729.25;;;27.55;83.53
61337;BME280;47212;41.326;2.104;2023-08-12T21:12:17;101714.81;;;27.53;83.34
61337;BME280;47212;41.326;2.104;2023-08-12T21:17:31;101707.59;;;27.52;83.21
61337;BME280;47212;41.326;2.104;2023-08-12T21:22:37;101709.09;;;27.49;83.39
61337;BME280;47212;41.326;2.104;2023-08-12T21:27:42;101705.03;;;27.47;83.13
61337;BME280;47212;41.326;2.104;2023-08-12T21:32:49;101700.16;;;27.44;83.08
61337;BME280;47212;41.326;2.104;2023-08-12T21:38:01;101701.56;;;27.38;83.25
61337;BME280;47212;41.326;2.104;2023-08-12T21:43:09;101701.34;;;27.31;83.47
61337;BME280;47212;41.326;2.104;2023-08-12T21:48:14;101697.88;;;27.21;83.86
61337;BME280;47212;41.326;2.104;2023-08-12T21:53:19;101701.72;;;27.17;83.69
61337;BME280;47212;41.326;2.104;2023-08-12T21:58:30;101699.28;;;27.15;84.18
61337;BME280;47212;41.326;2.104;2023-08-12T22:03:39;101703.94;;;27.11;84.54
61337;BME280;47212;41.326;2.104;2023-08-12T22:08:49;101704.66;;;27.08;84.54
61337;BME280;47212;41.326;2.104;2023-08-12T22:13:55;101692.09;;;27.02;84.93
61337;BME280;47212;41.326;2.104;2023-08-12T22:19:00;101686.97;;;27.04;85.22
61337;BME280;47212;41.326;2.104;2023-08-12T22:24:09;101681.84;;;27.06;84.91
61337;BME280;47212;41.326;2.104;2023-08-12T22:29:15;101682.28;;;27.08;85.04
61337;BME280;47212;41.326;2.104;2023-08-12T22:34:26;101672.28;;;27.07;84.99
61337;BME280;47212;41.326;2.104;2023-08-12T22:41:29;101682.66;;;27.07;85.26
61337;BME280;47212;41.326;2.104;2023-08-12T22:46:31;101681.84;;;27.06;85.34
61337;BME280;47212;41.326;2.104;2023-08-12T23:11:29;101697.22;;;27.00;85.47
61337;BME280;47212;41.326;2.104;2023-08-12T23:16:31;101697.22;;;27.00;85.90
61337;BME280;47212;41.326;2.104;2023-08-12T23:31:25;101689.19;;;26.99;85.76
61337;BME280;47212;41.326;2.104;2023-08-12T23:36:27;101705.78;;;26.95;85.89
61337;BME280;47212;41.326;2.104;2023-08-12T23:57:35;101689.28;;;26.90;86.17
